createdAt,value
2018-03-29T00:00:43.906Z,18.00
2018-03-29T00:02:36.829Z,20.20
2018-03-29T00:03:36.835Z,18.40
2018-03-29T00:05:29.784Z,19.80
2018-03-29T00:06:29.770Z,21.30
2018-03-29T00:08:22.698Z,20.20
2018-03-29T00:09:22.703Z,18.90
2018-03-29T00:11:15.646Z,21.60
2018-03-29T00:12:15.636Z,18.70
2018-03-29T00:14:08.564Z,19.50
2018-03-29T00:15:08.578Z,20.00
2018-03-29T00:17:01.529Z,21.00
2018-03-29T00:18:01.500Z,19.40
2018-03-29T00:19:54.449Z,18.60
2018-03-29T00:20:54.429Z,20.00
2018-03-29T00:22:47.349Z,17.20
2018-03-29T00:23:47.359Z,19.60
2018-03-29T00:25:40.306Z,17.70
2018-03-29T00:26:40.293Z,19.00
2018-03-29T00:28:33.220Z,19.50
2018-03-29T00:29:33.229Z,19.30
2018-03-29T00:31:26.174Z,19.10
2018-03-29T00:32:26.165Z,19.30
2018-03-29T00:34:19.099Z,19.50
2018-03-29T00:35:19.108Z,18.80
2018-03-29T00:37:13.051Z,19.40
2018-03-29T00:38:13.047Z,19.70
2018-03-29T00:40:05.990Z,21.50
2018-03-29T00:41:05.983Z,21.60
2018-03-29T00:42:58.911Z,21.70
2018-03-29T00:43:58.915Z,22.30
2018-03-29T00:45:51.864Z,25.20
2018-03-29T00:46:51.859Z,23.60
2018-03-29T00:48:44.778Z,24.00
2018-03-29T00:49:44.789Z,24.60
2018-03-29T00:51:38.238Z,27.50
2018-03-29T00:52:38.229Z,25.90
2018-03-29T00:54:31.154Z,27.40
2018-03-29T00:55:31.163Z,27.40
2018-03-29T00:57:24.111Z,31.90
2018-03-29T00:58:24.091Z,29.20
2018-03-29T01:00:17.056Z,28.80
2018-03-29T01:01:17.047Z,29.60
2018-03-29T01:03:09.963Z,29.00
2018-03-29T01:04:09.970Z,29.60
2018-03-29T01:06:02.915Z,30.10
2018-03-29T01:07:02.905Z,29.00
2018-03-29T01:08:55.834Z,28.70
2018-03-29T01:09:55.835Z,29.90
2018-03-29T01:11:48.789Z,30.00
2018-03-29T01:12:48.777Z,29.20
2018-03-29T01:14:41.703Z,27.50
2018-03-29T01:15:41.723Z,30.60
2018-03-29T01:17:34.668Z,27.90
2018-03-29T01:18:34.676Z,27.40
2018-03-29T01:20:27.594Z,28.20
2018-03-29T01:21:27.582Z,27.40
2018-03-29T01:23:20.531Z,27.60
2018-03-29T01:24:20.525Z,28.10
2018-03-29T01:26:13.473Z,27.60
2018-03-29T01:27:13.459Z,26.70
2018-03-29T01:29:06.397Z,27.30
2018-03-29T01:30:06.420Z,26.90
2018-03-29T01:31:59.341Z,27.40
2018-03-29T01:32:59.327Z,27.80
2018-03-29T01:34:52.259Z,26.10
2018-03-29T01:35:52.266Z,24.30
2018-03-29T01:37:45.209Z,25.00
2018-03-29T01:38:45.202Z,27.40
2018-03-29T01:40:38.136Z,26.30
2018-03-29T01:41:38.125Z,27.90
2018-03-29T01:43:31.052Z,28.60
2018-03-29T01:44:31.060Z,27.70
2018-03-29T01:46:24.001Z,28.40
2018-03-29T01:47:24.003Z,27.70
2018-03-29T01:49:16.931Z,27.30
2018-03-29T01:50:16.936Z,25.90
2018-03-29T01:52:09.870Z,27.80
2018-03-29T01:53:09.860Z,29.50
2018-03-29T01:55:02.789Z,29.40
2018-03-29T01:56:02.799Z,26.90
2018-03-29T01:57:55.745Z,28.30
2018-03-29T01:58:55.737Z,29.90
2018-03-29T02:00:48.664Z,30.00
2018-03-29T02:01:48.669Z,28.50
2018-03-29T02:03:41.613Z,28.50
2018-03-29T02:04:41.596Z,30.60
2018-03-29T02:06:34.546Z,27.40
2018-03-29T02:07:34.534Z,27.80
2018-03-29T02:09:27.471Z,28.10
2018-03-29T02:10:27.477Z,26.90
2018-03-29T02:12:20.423Z,27.80
2018-03-29T02:13:20.423Z,29.10
2018-03-29T02:15:13.338Z,27.30
2018-03-29T02:16:13.348Z,27.30
2018-03-29T02:18:06.297Z,28.40
2018-03-29T02:19:06.284Z,27.70
2018-03-29T02:20:59.230Z,27.00
2018-03-29T02:21:59.234Z,29.60
2018-03-29T02:23:52.178Z,27.00
2018-03-29T02:24:52.169Z,26.80
2018-03-29T02:26:45.112Z,26.70
2018-03-29T02:27:45.103Z,27.10
2018-03-29T02:29:38.033Z,26.10
2018-03-29T02:30:38.046Z,25.50
2018-03-29T02:32:30.982Z,26.80
2018-03-29T02:33:30.980Z,25.20
2018-03-29T02:35:23.910Z,25.80
2018-03-29T02:36:23.907Z,25.80
2018-03-29T02:38:16.855Z,26.40
2018-03-29T02:39:16.843Z,25.70
2018-03-29T02:41:09.768Z,24.30
2018-03-29T02:42:09.776Z,25.30
2018-03-29T02:44:02.726Z,25.30
2018-03-29T02:45:02.718Z,25.20
2018-03-29T02:46:55.662Z,23.60
2018-03-29T02:47:55.650Z,25.30
2018-03-29T02:49:48.581Z,23.50
2018-03-29T02:50:48.589Z,25.10
2018-03-29T02:52:41.550Z,24.60
2018-03-29T02:53:41.541Z,25.00
2018-03-29T02:55:34.438Z,26.20
2018-03-29T02:56:34.449Z,24.10
2018-03-29T02:58:27.401Z,24.10
2018-03-29T02:59:27.387Z,24.80
2018-03-29T03:01:20.309Z,23.30
2018-03-29T03:02:20.318Z,27.80
2018-03-29T05:03:07.378Z,24.60
2018-03-29T05:04:07.354Z,34.70
2018-03-29T05:06:00.296Z,35.90
2018-03-29T05:07:00.273Z,36.90
2018-03-29T05:08:53.200Z,37.40
2018-03-29T05:09:53.192Z,33.70
2018-03-29T05:11:46.119Z,35.10
2018-03-29T05:12:46.122Z,35.10
2018-03-29T05:14:39.049Z,35.10
2018-03-29T05:15:39.042Z,36.60
2018-03-29T05:17:31.963Z,34.10
2018-03-29T05:18:31.968Z,35.70
2018-03-29T05:20:25.395Z,35.60
2018-03-29T05:21:25.380Z,37.40
2018-03-29T05:23:18.311Z,35.20
2018-03-29T05:24:18.342Z,35.90
2018-03-29T05:26:11.270Z,38.90
2018-03-29T05:27:11.257Z,36.80
2018-03-29T05:29:04.191Z,36.00
2018-03-29T05:30:04.184Z,37.10
2018-03-29T05:31:57.108Z,38.00
2018-03-29T05:32:57.110Z,38.30
2018-03-29T05:34:50.053Z,36.30
2018-03-29T05:35:50.045Z,36.60
2018-03-29T05:37:42.970Z,38.00
2018-03-29T05:38:42.977Z,36.90
2018-03-29T05:40:35.927Z,36.40
2018-03-29T05:41:35.917Z,39.90
2018-03-29T05:43:28.843Z,45.20
2018-03-29T05:44:28.867Z,38.10
2018-03-29T05:46:21.795Z,38.30
2018-03-29T05:47:21.783Z,35.70
2018-03-29T05:49:14.731Z,36.90
2018-03-29T05:50:14.727Z,36.30
2018-03-29T05:52:07.651Z,39.50
2018-03-29T05:53:07.657Z,37.40
2018-03-29T05:55:00.619Z,38.80
2018-03-29T05:56:00.619Z,39.80
2018-03-29T05:57:53.516Z,41.50
2018-03-29T05:58:53.522Z,44.20
2018-03-29T06:00:46.468Z,44.10
2018-03-29T06:01:46.456Z,40.90
2018-03-29T06:03:39.379Z,41.10
2018-03-29T06:04:39.389Z,41.10
2018-03-29T06:06:32.337Z,40.50
2018-03-29T06:07:32.327Z,39.90
2018-03-29T06:09:25.274Z,44.50
2018-03-29T06:10:25.275Z,40.70
2018-03-29T06:12:18.211Z,42.10
2018-03-29T06:13:18.212Z,40.40
2018-03-29T06:15:11.167Z,43.50
2018-03-29T06:16:11.148Z,43.10
2018-03-29T06:18:04.066Z,40.70
2018-03-29T06:19:04.074Z,40.60
2018-03-29T06:20:57.022Z,46.40
2018-03-29T06:21:57.012Z,43.80
2018-03-29T06:23:49.931Z,42.40
2018-03-29T06:24:49.938Z,41.40
2018-03-29T06:26:42.881Z,42.60
2018-03-29T06:27:42.868Z,45.10
2018-03-29T06:29:35.826Z,43.10
2018-03-29T06:30:35.804Z,43.10
2018-03-29T06:32:28.737Z,41.00
2018-03-29T06:33:28.748Z,42.80
2018-03-29T06:35:21.688Z,42.80
2018-03-29T06:36:21.683Z,44.00
2018-03-29T06:38:14.610Z,43.30
2018-03-29T06:39:14.613Z,41.70
2018-03-29T06:41:07.556Z,40.70
2018-03-29T06:42:07.546Z,39.10
2018-03-29T06:44:00.502Z,43.00
2018-03-29T06:45:00.486Z,40.20
2018-03-29T06:46:53.933Z,40.30
2018-03-29T06:47:53.921Z,40.60
2018-03-29T06:49:46.863Z,41.40
2018-03-29T06:50:46.857Z,39.90
2018-03-29T06:52:39.795Z,38.40
2018-03-29T06:53:39.790Z,39.70
2018-03-29T06:55:32.727Z,38.60
2018-03-29T06:56:32.714Z,39.40
2018-03-29T06:58:25.660Z,38.10
2018-03-29T06:59:25.682Z,35.70
2018-03-29T07:01:18.610Z,34.20
2018-03-29T07:02:18.595Z,34.60
2018-03-29T07:04:11.520Z,36.20
2018-03-29T07:05:11.522Z,37.40
2018-03-29T07:07:04.465Z,33.30
2018-03-29T07:08:04.458Z,38.40
2018-03-29T07:09:57.461Z,35.50
2018-03-29T07:10:57.468Z,36.40
2018-03-29T07:12:50.418Z,35.40
2018-03-29T07:13:50.418Z,33.40
2018-03-29T07:15:43.392Z,34.00
2018-03-29T07:16:43.346Z,36.70
2018-03-29T07:18:36.266Z,35.80
2018-03-29T07:19:36.275Z,33.10
2018-03-29T07:21:29.216Z,36.20
2018-03-29T07:22:29.208Z,35.40
2018-03-29T07:24:22.134Z,37.70
2018-03-29T07:25:22.143Z,35.50
2018-03-29T07:27:15.193Z,36.50
2018-03-29T07:28:15.210Z,36.60
2018-03-29T07:30:08.109Z,38.10
2018-03-29T07:31:08.108Z,37.90
2018-03-29T07:33:01.043Z,38.10
2018-03-29T07:34:01.034Z,39.30
2018-03-29T07:35:53.981Z,37.30
2018-03-29T07:36:53.976Z,39.90
2018-03-29T07:38:46.895Z,36.30
2018-03-29T07:39:46.907Z,37.90
2018-03-29T07:41:40.363Z,35.10
2018-03-29T07:42:40.348Z,36.90
2018-03-29T07:44:33.287Z,36.30
2018-03-29T07:45:33.284Z,39.30
2018-03-29T07:47:26.232Z,38.10
2018-03-29T07:48:26.224Z,37.20
2018-03-29T07:50:19.142Z,41.20
2018-03-29T07:51:19.153Z,36.10
2018-03-29T07:53:12.155Z,36.50
2018-03-29T07:54:12.103Z,38.40
2018-03-29T07:56:05.053Z,36.70
2018-03-29T07:57:05.038Z,37.80
2018-03-29T07:58:57.971Z,35.30
2018-03-29T07:59:57.981Z,36.00
2018-03-29T08:01:50.930Z,36.90
2018-03-29T08:02:50.917Z,36.20
2018-03-29T08:04:43.839Z,35.90
2018-03-29T08:05:43.850Z,36.80
2018-03-29T08:07:36.798Z,38.10
2018-03-29T08:08:36.788Z,38.70
2018-03-29T08:10:29.727Z,36.50
2018-03-29T08:11:29.729Z,36.10
2018-03-29T08:13:22.682Z,37.30
2018-03-29T08:14:22.661Z,35.30
2018-03-29T08:16:15.616Z,36.60
2018-03-29T08:17:15.607Z,37.70
2018-03-29T08:19:08.531Z,34.60
2018-03-29T08:20:08.548Z,36.30
2018-03-29T08:22:01.486Z,37.20
2018-03-29T08:23:01.478Z,35.20
2018-03-29T08:24:54.899Z,35.50
2018-03-29T08:25:54.910Z,36.20
2018-03-29T08:27:47.866Z,35.70
2018-03-29T08:28:47.837Z,37.70
2018-03-29T08:30:41.760Z,35.50
2018-03-29T08:31:41.777Z,32.90
2018-03-29T08:33:34.738Z,32.00
2018-03-29T08:34:34.713Z,32.90
2018-03-29T08:36:27.686Z,32.60
2018-03-29T08:37:27.678Z,32.10
2018-03-29T08:39:20.617Z,30.30
2018-03-29T08:40:20.622Z,30.20
2018-03-29T08:42:13.567Z,30.90
2018-03-29T08:43:13.557Z,28.80
2018-03-29T08:45:06.484Z,28.80
2018-03-29T08:46:06.498Z,28.20
2018-03-29T08:47:59.459Z,28.00
2018-03-29T08:48:59.448Z,24.70
2018-03-29T08:50:52.700Z,24.40
2018-03-29T08:51:52.390Z,23.60
2018-03-29T08:53:45.396Z,26.30
2018-03-29T08:54:45.350Z,25.20
2018-03-29T08:56:38.275Z,25.00
2018-03-29T08:57:38.275Z,24.60
2018-03-29T08:59:31.210Z,24.20
2018-03-29T09:00:31.228Z,25.70
2018-03-29T09:02:24.190Z,24.40
2018-03-29T09:03:24.181Z,25.90
2018-03-29T09:05:17.119Z,24.90
2018-03-29T09:06:17.130Z,25.10
2018-03-29T09:08:10.076Z,25.40
2018-03-29T09:09:10.070Z,22.60
2018-03-29T09:11:03.005Z,24.40
2018-03-29T09:12:03.015Z,24.30
2018-03-29T09:13:55.962Z,25.80
2018-03-29T09:14:55.952Z,20.90
2018-03-29T09:16:48.880Z,23.50
2018-03-29T09:17:48.899Z,24.30
2018-03-29T09:19:41.838Z,23.40
2018-03-29T09:20:41.836Z,25.90
2018-03-29T09:22:34.788Z,21.80
2018-03-29T09:23:34.774Z,23.40
2018-03-29T09:25:27.705Z,23.80
2018-03-29T09:26:27.718Z,22.50
2018-03-29T09:28:20.665Z,24.30
2018-03-29T09:29:20.672Z,24.60
2018-03-29T09:31:13.634Z,21.50
2018-03-29T09:32:13.621Z,20.20
2018-03-29T09:34:06.562Z,23.50
2018-03-29T09:35:06.550Z,21.00
2018-03-29T09:36:59.479Z,20.50
2018-03-29T09:37:59.494Z,21.00
2018-03-29T09:39:52.442Z,25.10
2018-03-29T09:40:52.439Z,21.00
2018-03-29T09:42:45.394Z,20.60
2018-03-29T09:43:45.386Z,21.20
2018-03-29T09:45:38.333Z,19.60
2018-03-29T09:46:38.323Z,22.20
2018-03-29T09:48:31.271Z,20.90
2018-03-29T09:49:31.264Z,22.30
2018-03-29T09:51:24.207Z,22.40
2018-03-29T09:52:24.210Z,20.90
2018-03-29T09:54:17.159Z,20.30
2018-03-29T09:55:17.152Z,20.40
2018-03-29T09:57:10.084Z,22.00
2018-03-29T09:58:10.099Z,19.80
2018-03-29T10:00:03.049Z,19.70
2018-03-29T10:01:03.044Z,18.80
2018-03-29T10:02:56.001Z,18.90
2018-03-29T10:03:55.994Z,21.20
2018-03-29T10:05:48.932Z,18.10
2018-03-29T10:06:48.944Z,18.50
2018-03-29T10:08:41.949Z,17.30
2018-03-29T10:09:41.890Z,19.40
2018-03-29T10:11:34.823Z,18.50
2018-03-29T10:12:34.836Z,17.60
2018-03-29T10:14:27.789Z,17.30
2018-03-29T10:15:27.799Z,20.00
2018-03-29T10:17:20.776Z,20.30
2018-03-29T10:18:20.738Z,18.40
2018-03-29T10:20:13.688Z,17.20
2018-03-29T10:21:13.685Z,16.70
2018-03-29T10:23:06.639Z,14.70
2018-03-29T10:24:06.634Z,14.90
2018-03-29T10:25:59.565Z,13.90
2018-03-29T10:26:59.607Z,14.30
2018-03-29T10:28:52.539Z,15.10
2018-03-29T10:29:52.531Z,13.10
2018-03-29T10:31:45.465Z,15.50
2018-03-29T10:32:45.471Z,13.60
2018-03-29T10:34:38.443Z,15.50
2018-03-29T10:35:38.450Z,14.60
2018-03-29T10:37:31.357Z,15.70
2018-03-29T10:38:31.378Z,15.20
2018-03-29T10:40:24.325Z,13.60
2018-03-29T10:41:24.321Z,13.10
2018-03-29T10:43:17.272Z,14.20
2018-03-29T10:44:17.264Z,18.70
2018-03-29T10:46:10.205Z,15.30
2018-03-29T10:47:10.216Z,15.10
2018-03-29T10:49:03.171Z,14.10
2018-03-29T10:50:03.176Z,13.70
2018-03-29T10:51:56.100Z,14.10
2018-03-29T10:52:56.117Z,15.70
2018-03-29T10:54:49.065Z,13.30
2018-03-29T10:55:49.059Z,13.50
2018-03-29T10:57:41.988Z,12.40
2018-03-29T10:58:41.999Z,11.10
2018-03-29T11:00:34.960Z,12.10
2018-03-29T11:01:34.953Z,11.00
2018-03-29T11:03:27.913Z,11.60
2018-03-29T11:04:27.909Z,11.70
2018-03-29T11:06:20.843Z,10.90
2018-03-29T11:07:20.857Z,11.20
2018-03-29T11:09:13.825Z,13.00
2018-03-29T11:10:13.804Z,14.50
2018-03-29T11:12:06.730Z,10.70
2018-03-29T11:13:06.744Z,10.70
2018-03-29T11:14:59.696Z,10.10
2018-03-29T11:15:59.686Z,10.70
2018-03-29T11:17:52.622Z,10.90
2018-03-29T11:18:52.631Z,10.20
2018-03-29T11:20:45.583Z,11.50
2018-03-29T11:21:45.578Z,9.70
2018-03-29T11:23:38.507Z,9.70
2018-03-29T11:24:38.520Z,10.90
2018-03-29T11:26:31.469Z,10.80
2018-03-29T11:27:31.465Z,13.20
2018-03-29T11:29:24.414Z,11.80
2018-03-29T11:30:24.406Z,13.50
2018-03-29T11:32:17.337Z,12.50
2018-03-29T11:33:17.351Z,13.00
2018-03-29T11:35:10.299Z,11.10
2018-03-29T11:36:10.295Z,10.80
2018-03-29T11:38:03.224Z,7.90
2018-03-29T11:39:03.246Z,5.90
2018-03-29T11:40:56.196Z,6.00
2018-03-29T11:41:56.184Z,7.20
2018-03-29T11:43:49.110Z,6.60
2018-03-29T11:44:49.129Z,7.00
2018-03-29T11:46:42.079Z,5.70
2018-03-29T11:47:42.071Z,5.80
2018-03-29T11:49:35.019Z,5.70
2018-03-29T11:50:35.011Z,5.70
2018-03-29T11:52:27.940Z,5.60
2018-03-29T11:53:27.958Z,5.60
2018-03-29T11:55:20.903Z,6.50
2018-03-29T11:56:20.899Z,7.30
2018-03-29T11:58:13.831Z,4.60
2018-03-29T11:59:13.848Z,4.80
2018-03-29T12:01:06.795Z,5.00
2018-03-29T12:02:06.790Z,4.60
2018-03-29T12:03:59.723Z,4.20
2018-03-29T12:04:59.736Z,5.20
2018-03-29T12:06:52.695Z,5.00
2018-03-29T12:07:52.686Z,4.70
2018-03-29T12:09:45.634Z,5.70
2018-03-29T12:10:45.619Z,6.00
2018-03-29T12:12:38.554Z,4.20
2018-03-29T12:13:38.568Z,3.80
2018-03-29T12:15:31.514Z,3.90
2018-03-29T12:16:31.517Z,4.40
2018-03-29T12:18:24.438Z,5.40
2018-03-29T12:19:24.457Z,3.40
2018-03-29T12:21:17.398Z,4.00
2018-03-29T12:22:17.399Z,5.00
2018-03-29T12:24:10.332Z,5.60
2018-03-29T12:25:10.346Z,4.70
2018-03-29T12:27:03.299Z,4.40
2018-03-29T12:28:03.294Z,4.30
2018-03-29T12:29:56.295Z,5.00
2018-03-29T12:30:56.290Z,5.80
2018-03-29T12:32:49.750Z,5.90
2018-03-29T12:33:49.234Z,5.10
2018-03-29T12:35:42.196Z,5.20
2018-03-29T12:36:42.186Z,5.90
2018-03-29T12:38:35.121Z,6.20
2018-03-29T12:39:35.141Z,5.40
2018-03-29T12:41:28.097Z,6.80
2018-03-29T12:42:28.087Z,5.70
2018-03-29T12:44:21.021Z,6.50
2018-03-29T12:45:21.039Z,5.50
2018-03-29T12:47:13.994Z,5.40
2018-03-29T12:48:13.991Z,5.90
2018-03-29T12:50:06.951Z,5.50
2018-03-29T12:51:06.942Z,6.80
2018-03-29T12:52:59.881Z,5.60
2018-03-29T12:53:59.909Z,6.30
2018-03-29T12:55:52.837Z,6.10
2018-03-29T12:56:52.829Z,5.70
2018-03-29T12:58:45.772Z,6.10
2018-03-29T12:59:45.782Z,5.00
2018-03-29T13:01:38.737Z,5.80
2018-03-29T13:02:38.732Z,6.30
2018-03-29T13:04:31.671Z,6.10
2018-03-29T13:05:31.692Z,6.80
2018-03-29T13:07:24.644Z,6.20
2018-03-29T13:08:24.639Z,7.90
2018-03-29T13:10:17.575Z,6.90
2018-03-29T13:11:17.590Z,6.20
2018-03-29T13:13:10.547Z,6.80
2018-03-29T13:14:10.542Z,6.10
2018-03-29T13:16:03.499Z,7.50
2018-03-29T13:17:03.501Z,6.60
2018-03-29T13:18:56.427Z,7.90
2018-03-29T13:19:56.438Z,6.20
2018-03-29T13:21:49.390Z,7.00
2018-03-29T13:22:49.389Z,7.30
2018-03-29T13:24:42.316Z,7.20
2018-03-29T13:25:42.334Z,7.20
2018-03-29T13:27:35.297Z,8.30
2018-03-29T13:28:35.304Z,6.70
2018-03-29T13:30:28.218Z,9.20
2018-03-29T13:31:28.238Z,6.80
2018-03-29T13:33:21.191Z,7.50
2018-03-29T13:34:21.186Z,9.30
2018-03-29T13:36:14.140Z,8.80
2018-03-29T13:37:14.131Z,7.80
2018-03-29T13:39:07.064Z,6.90
2018-03-29T13:40:07.077Z,7.30
2018-03-29T13:42:00.038Z,6.90
2018-03-29T13:43:00.029Z,8.50
2018-03-29T13:44:52.961Z,8.70
2018-03-29T13:45:52.971Z,6.20
2018-03-29T13:47:45.926Z,7.30
2018-03-29T13:48:45.920Z,8.10
2018-03-29T13:50:38.854Z,7.30
2018-03-29T13:51:38.872Z,6.70
2018-03-29T13:53:31.824Z,6.20
2018-03-29T13:54:31.813Z,5.60
2018-03-29T13:56:24.773Z,5.70
2018-03-29T13:57:24.764Z,4.70
2018-03-29T13:59:17.707Z,5.60
2018-03-29T14:00:17.722Z,4.60
2018-03-29T14:02:10.675Z,8.30
2018-03-29T14:03:10.673Z,5.90
2018-03-29T14:05:03.618Z,5.50
2018-03-29T14:06:03.626Z,5.20
2018-03-29T14:07:56.580Z,4.60
2018-03-29T14:08:56.581Z,5.80
2018-03-29T14:10:49.511Z,4.20
2018-03-29T14:11:49.533Z,5.10
2018-03-29T14:13:42.487Z,5.30
2018-03-29T14:14:42.535Z,4.80
2018-03-29T14:16:35.434Z,5.10
2018-03-29T14:17:35.428Z,6.20
2018-03-29T14:19:28.364Z,7.10
2018-03-29T14:20:28.380Z,6.90
2018-03-29T14:22:21.832Z,4.90
2018-03-29T14:23:21.826Z,6.60
2018-03-29T14:25:14.757Z,4.90
2018-03-29T14:26:14.778Z,4.40
2018-03-29T14:28:07.744Z,4.90
2018-03-29T14:29:07.738Z,5.70
2018-03-29T14:31:00.676Z,4.70
2018-03-29T14:32:00.689Z,4.50
2018-03-29T14:33:53.648Z,4.90
2018-03-29T14:34:53.646Z,5.30
2018-03-29T14:36:46.574Z,4.50
2018-03-29T14:37:46.588Z,5.20
2018-03-29T14:39:39.546Z,5.20
2018-03-29T14:40:39.538Z,5.00
2018-03-29T14:42:32.495Z,4.50
2018-03-29T14:43:32.490Z,6.00
2018-03-29T14:45:25.425Z,6.00
2018-03-29T14:46:25.446Z,4.20
2018-03-29T14:48:18.401Z,3.70
2018-03-29T14:49:18.388Z,5.20
2018-03-29T14:51:11.324Z,4.30
2018-03-29T14:52:11.336Z,4.60
2018-03-29T14:54:04.291Z,5.30
2018-03-29T14:55:04.294Z,3.70
2018-03-29T14:56:57.222Z,5.40
2018-03-29T14:57:57.241Z,6.10
2018-03-29T14:59:50.187Z,4.40
2018-03-29T15:00:50.179Z,3.80
2018-03-29T15:02:43.135Z,4.60
2018-03-29T15:03:43.127Z,4.20
2018-03-29T15:05:36.064Z,4.80
2018-03-29T15:06:36.101Z,5.80
2018-03-29T15:08:29.036Z,5.90
2018-03-29T15:09:29.034Z,3.90
2018-03-29T15:11:21.966Z,4.70
2018-03-29T15:12:21.980Z,5.00
2018-03-29T15:14:14.939Z,5.10
2018-03-29T15:15:14.928Z,4.50
2018-03-29T15:17:07.859Z,6.60
2018-03-29T15:18:07.870Z,4.90
2018-03-29T15:20:00.829Z,5.50
2018-03-29T15:21:00.822Z,4.60
2018-03-29T15:22:53.770Z,6.30
2018-03-29T15:23:53.762Z,5.60
2018-03-29T15:25:46.697Z,4.70
2018-03-29T15:26:46.706Z,5.10
2018-03-29T15:28:39.656Z,5.10
2018-03-29T15:29:39.649Z,5.00
2018-03-29T15:31:32.640Z,5.10
2018-03-29T15:32:32.599Z,5.20
2018-03-29T15:34:25.558Z,6.30
2018-03-29T15:35:25.551Z,5.70
2018-03-29T15:37:18.493Z,5.30
2018-03-29T15:38:18.502Z,5.70
2018-03-29T15:40:11.453Z,5.10
2018-03-29T15:41:11.445Z,4.90
2018-03-29T15:43:04.398Z,4.30
2018-03-29T15:44:04.389Z,6.60
2018-03-29T15:45:57.323Z,6.60
2018-03-29T15:46:57.335Z,6.40
2018-03-29T15:48:50.286Z,5.40
2018-03-29T15:49:50.279Z,6.30
2018-03-29T15:51:43.218Z,4.90
2018-03-29T15:52:43.223Z,5.20
2018-03-29T15:54:36.183Z,4.40
2018-03-29T15:55:36.169Z,7.00
2018-03-29T15:57:29.098Z,7.10
2018-03-29T15:58:29.113Z,4.10
2018-03-29T16:00:22.096Z,6.40
2018-03-29T16:01:22.058Z,6.60
2018-03-29T16:03:15.009Z,6.20
2018-03-29T16:04:15.000Z,5.80
2018-03-29T16:06:07.935Z,6.50
2018-03-29T16:07:07.987Z,7.80
2018-03-29T16:09:00.914Z,4.70
2018-03-29T16:10:00.905Z,4.90
2018-03-29T16:11:53.837Z,5.10
2018-03-29T16:12:53.857Z,4.60
2018-03-29T16:14:46.819Z,5.50
2018-03-29T16:15:46.819Z,5.60
2018-03-29T16:17:39.751Z,6.00
2018-03-29T16:18:39.765Z,5.20
2018-03-29T16:20:32.718Z,6.60
2018-03-29T16:21:32.721Z,3.50
2018-03-29T16:23:25.666Z,3.70
2018-03-29T16:24:25.687Z,4.20
2018-03-29T16:26:18.587Z,5.20
2018-03-29T16:27:18.601Z,4.20
2018-03-29T16:29:11.553Z,4.00
2018-03-29T16:30:11.555Z,5.80
2018-03-29T16:32:04.531Z,4.40
2018-03-29T16:33:04.493Z,4.90
2018-03-29T16:34:57.461Z,3.40
2018-03-29T16:35:57.449Z,3.30
2018-03-29T16:37:50.382Z,4.20
2018-03-29T16:38:50.394Z,5.10
2018-03-29T16:40:44.064Z,4.70
2018-03-29T16:41:44.051Z,3.50
2018-03-29T16:43:37.012Z,4.40
2018-03-29T16:44:36.992Z,4.70
2018-03-29T16:46:29.929Z,3.90
2018-03-29T16:47:29.942Z,6.00
2018-03-29T16:49:22.889Z,4.00
2018-03-29T16:50:22.883Z,5.80
2018-03-29T16:52:15.822Z,5.10
2018-03-29T16:53:15.826Z,3.90
2018-03-29T16:55:08.772Z,6.30
2018-03-29T16:56:08.765Z,5.50
2018-03-29T16:58:01.704Z,4.80
2018-03-29T16:59:01.711Z,3.80
2018-03-29T17:00:54.658Z,5.20
2018-03-29T17:01:54.659Z,4.00
2018-03-29T17:03:47.589Z,5.50
2018-03-29T17:04:47.605Z,3.90
2018-03-29T17:06:40.551Z,5.70
2018-03-29T17:07:40.543Z,4.00
2018-03-29T17:09:33.493Z,5.10
2018-03-29T17:10:33.486Z,4.80
2018-03-29T17:12:26.418Z,7.20
2018-03-29T17:13:26.431Z,5.60
2018-03-29T17:15:19.385Z,5.30
2018-03-29T17:16:19.373Z,5.00
2018-03-29T17:18:12.302Z,5.10
2018-03-29T17:19:12.316Z,7.00
2018-03-29T17:21:05.265Z,5.00
2018-03-29T17:22:05.265Z,7.50
2018-03-29T17:23:58.191Z,6.10
2018-03-29T17:24:58.199Z,5.40
2018-03-29T17:26:51.152Z,7.90
2018-03-29T17:27:51.141Z,5.60
2018-03-29T17:29:44.097Z,6.60
2018-03-29T17:30:44.088Z,7.00
2018-03-29T17:32:37.015Z,6.70
2018-03-29T17:33:37.027Z,4.50
2018-03-29T17:35:29.979Z,7.00
2018-03-29T17:36:29.989Z,7.10
2018-03-29T17:38:22.911Z,6.20
2018-03-29T17:39:22.915Z,5.90
2018-03-29T17:41:15.919Z,7.40
2018-03-29T17:42:15.860Z,6.90
2018-03-29T17:44:08.780Z,7.50
2018-03-29T17:45:08.790Z,6.00
2018-03-29T17:47:01.741Z,5.80
2018-03-29T17:48:01.733Z,6.60
2018-03-29T17:49:54.680Z,5.20
2018-03-29T17:50:54.670Z,5.90
2018-03-29T17:52:47.608Z,7.60
2018-03-29T17:53:47.616Z,6.20
2018-03-29T17:55:40.564Z,7.00
2018-03-29T17:56:40.559Z,7.40
2018-03-29T17:58:33.480Z,6.10
2018-03-29T17:59:33.495Z,6.40
2018-03-29T18:01:26.453Z,8.30
2018-03-29T18:02:26.433Z,6.80
2018-03-29T18:04:19.360Z,6.70
2018-03-29T18:05:19.375Z,7.80
2018-03-29T18:07:12.334Z,8.10
2018-03-29T18:08:12.309Z,6.60
2018-03-29T18:10:05.258Z,7.10
2018-03-29T18:11:05.246Z,6.50
2018-03-29T18:12:58.220Z,7.70
2018-03-29T18:13:58.193Z,6.70
2018-03-29T18:15:51.132Z,8.00
2018-03-29T18:16:51.125Z,7.90
2018-03-29T18:18:44.051Z,7.20
2018-03-29T18:19:44.062Z,8.10
2018-03-29T18:21:37.009Z,8.30
2018-03-29T18:22:37.001Z,8.10
2018-03-29T18:24:29.934Z,7.20
2018-03-29T18:25:29.932Z,10.30
2018-03-29T18:27:22.886Z,8.20
2018-03-29T18:28:22.882Z,9.90
2018-03-29T18:30:15.861Z,7.00
2018-03-29T18:31:15.812Z,6.80
2018-03-29T18:33:08.740Z,7.90
2018-03-29T18:34:08.747Z,7.60
2018-03-29T18:36:01.701Z,7.50
2018-03-29T18:37:01.686Z,8.90
2018-03-29T18:38:54.621Z,9.10
2018-03-29T18:39:54.639Z,8.80
2018-03-29T18:41:47.573Z,8.60
2018-03-29T18:42:47.564Z,9.80
2018-03-29T18:44:40.492Z,9.40
2018-03-29T18:45:40.502Z,9.70
2018-03-29T18:47:33.465Z,8.50
2018-03-29T18:48:33.446Z,8.90
2018-03-29T18:50:26.394Z,7.70
2018-03-29T18:51:26.392Z,7.00
2018-03-29T18:53:19.315Z,10.40
2018-03-29T18:54:19.327Z,16.50
2018-03-29T18:56:12.265Z,22.30
2018-03-29T18:57:12.258Z,20.20
2018-03-29T18:59:05.195Z,11.30
2018-03-29T19:00:05.197Z,11.20
2018-03-29T19:01:58.144Z,12.60
2018-03-29T19:02:58.139Z,15.50
2018-03-29T19:04:51.058Z,12.00
2018-03-29T19:05:51.069Z,12.10
2018-03-29T19:07:44.012Z,11.80
2018-03-29T19:08:44.006Z,14.50
2018-03-29T19:10:36.927Z,15.70
2018-03-29T19:11:36.940Z,15.20
2018-03-29T19:13:29.883Z,11.40
2018-03-29T19:14:29.876Z,11.70
2018-03-29T19:16:22.830Z,14.00
2018-03-29T19:17:22.816Z,11.80
2018-03-29T19:19:15.737Z,11.30
2018-03-29T19:20:15.743Z,11.40
2018-03-29T19:22:09.187Z,11.60
2018-03-29T19:23:09.174Z,9.50
2018-03-29T19:25:02.097Z,9.70
2018-03-29T19:26:02.108Z,11.30
2018-03-29T19:27:55.058Z,9.90
2018-03-29T19:28:55.050Z,12.80
2018-03-29T19:30:47.978Z,10.00
2018-03-29T19:31:47.991Z,9.70
2018-03-29T19:33:40.938Z,9.50
2018-03-29T19:34:40.926Z,9.20
2018-03-29T19:36:33.874Z,9.30
2018-03-29T19:37:33.864Z,9.60
2018-03-29T19:39:26.789Z,9.60
2018-03-29T19:40:26.800Z,9.90
2018-03-29T19:42:19.744Z,10.10
2018-03-29T19:43:19.735Z,13.50
2018-03-29T19:45:12.659Z,10.50
2018-03-29T19:46:12.677Z,12.40
2018-03-29T19:48:05.609Z,16.10
2018-03-29T19:49:05.601Z,13.40
2018-03-29T19:50:58.534Z,11.60
2018-03-29T19:51:58.537Z,11.60
2018-03-29T19:53:51.499Z,11.80
2018-03-29T19:54:51.509Z,13.80
2018-03-29T19:56:44.417Z,12.30
2018-03-29T19:57:44.406Z,11.50
2018-03-29T19:59:37.331Z,16.70
2018-03-29T20:00:37.345Z,13.50
2018-03-29T20:02:30.287Z,15.50
2018-03-29T20:03:30.278Z,12.20
2018-03-29T20:05:23.214Z,12.90
2018-03-29T20:06:23.218Z,14.50
2018-03-29T20:08:16.153Z,15.80
2018-03-29T20:09:16.145Z,16.70
2018-03-29T20:11:09.066Z,16.10
2018-03-29T20:12:09.076Z,18.40
2018-03-29T20:14:02.020Z,13.10
2018-03-29T20:15:02.006Z,12.90
2018-03-29T20:16:54.997Z,13.60
2018-03-29T20:17:54.950Z,12.80
2018-03-29T20:19:47.928Z,12.30
2018-03-29T20:20:47.884Z,12.90
2018-03-29T20:22:40.841Z,12.30
2018-03-29T20:23:40.832Z,13.10
2018-03-29T20:25:33.753Z,11.80
2018-03-29T20:26:33.762Z,11.90
2018-03-29T20:28:26.710Z,13.10
2018-03-29T20:29:26.700Z,10.10
2018-03-29T20:31:19.623Z,12.20
2018-03-29T20:32:19.634Z,10.70
2018-03-29T20:34:12.577Z,12.00
2018-03-29T20:35:12.571Z,10.90
2018-03-29T20:37:05.516Z,10.40
2018-03-29T20:38:05.509Z,14.60
2018-03-29T20:39:58.426Z,12.00
2018-03-29T20:40:58.440Z,13.00
2018-03-29T20:42:51.385Z,14.90
2018-03-29T20:43:51.375Z,9.40
2018-03-29T20:45:44.303Z,13.00
2018-03-29T20:46:44.312Z,12.40